createdAt,value
2019-06-08T00:00:13.075Z,21.90
2019-06-08T00:05:21.041Z,21.80
2019-06-08T00:10:27.200Z,21.80
2019-06-08T00:15:33.974Z,21.70
2019-06-08T00:20:40.491Z,21.70
2019-06-08T00:25:46.942Z,21.60
2019-06-08T00:30:53.204Z,21.60
2019-06-08T00:36:00.626Z,21.60
2019-06-08T00:41:07.448Z,21.50
2019-06-08T00:46:13.577Z,21.50
2019-06-08T00:51:19.289Z,21.50
2019-06-08T00:56:26.054Z,21.40
2019-06-08T01:01:32.672Z,21.40
2019-06-08T01:06:39.396Z,21.40
2019-06-08T01:11:45.481Z,21.30
2019-06-08T01:16:51.345Z,21.30
2019-06-08T01:21:58.076Z,21.30
2019-06-08T01:27:04.617Z,21.20
2019-06-08T01:32:10.548Z,21.20
2019-06-08T01:37:17.573Z,21.20
2019-06-08T01:42:25.250Z,21.20
2019-06-08T01:47:32.386Z,21.20
2019-06-08T01:52:38.864Z,21.10
2019-06-08T01:57:45.495Z,21.10
2019-06-08T02:02:51.317Z,21.10
2019-06-08T02:07:58.069Z,21.00
2019-06-08T02:13:03.956Z,21.00
2019-06-08T02:18:10.597Z,21.00
2019-06-08T02:23:16.556Z,21.00
2019-06-08T02:28:23.237Z,21.00
2019-06-08T02:33:30.351Z,20.90
2019-06-08T02:38:36.818Z,20.90
2019-06-08T02:43:42.705Z,20.90
2019-06-08T02:49:03.558Z,20.90
2019-06-08T02:53:56.736Z,20.90
2019-06-08T02:59:02.946Z,20.90
2019-06-08T03:04:08.837Z,20.90
2019-06-08T03:09:15.125Z,20.90
2019-06-08T03:14:21.727Z,20.80
2019-06-08T03:19:28.298Z,20.80
2019-06-08T03:24:34.502Z,20.70
2019-06-08T03:29:42.147Z,20.60
2019-06-08T03:34:55.944Z,20.50
2019-06-08T03:39:57.338Z,20.40
2019-06-08T03:45:03.519Z,20.40
2019-06-08T03:50:09.616Z,20.30
2019-06-08T03:55:16.098Z,20.20
2019-06-08T04:00:21.898Z,20.20
2019-06-08T04:05:28.337Z,20.10
2019-06-08T04:10:34.626Z,20.10
2019-06-08T04:15:42.640Z,20.00
2019-06-08T04:20:51.338Z,20.00
2019-06-08T04:25:56.617Z,20.00
2019-06-08T04:31:03.327Z,19.90
2019-06-08T04:36:09.564Z,19.90
2019-06-08T04:41:15.986Z,19.90
2019-06-08T04:46:21.758Z,19.80
2019-06-08T04:51:28.187Z,19.80
2019-06-08T04:56:34.710Z,19.80
2019-06-08T05:01:41.017Z,19.70
2019-06-08T05:06:47.387Z,19.70
2019-06-08T05:11:54.126Z,19.70
2019-06-08T05:17:00.636Z,19.60
2019-06-08T05:22:07.161Z,19.60
2019-06-08T05:27:15.577Z,19.50
2019-06-08T05:32:22.062Z,19.50
2019-06-08T05:37:28.738Z,19.50
2019-06-08T05:42:36.362Z,19.60
2019-06-08T05:47:43.973Z,19.70
2019-06-08T05:52:50.356Z,19.80
2019-06-08T05:57:56.775Z,20.00
2019-06-08T06:03:02.865Z,20.10
2019-06-08T06:08:18.442Z,20.20
2019-06-08T06:13:35.578Z,20.40
2019-06-08T06:19:00.666Z,20.50
2019-06-08T06:24:06.506Z,20.60
2019-06-08T06:29:12.767Z,20.70
2019-06-08T06:34:19.145Z,20.90
2019-06-08T06:39:25.705Z,20.90
2019-06-08T06:44:31.358Z,21.00
2019-06-08T06:49:37.666Z,21.00
2019-06-08T06:54:44.682Z,21.10
2019-06-08T06:59:51.757Z,21.20
2019-06-08T07:04:58.256Z,21.30
2019-06-08T07:10:05.134Z,21.40
2019-06-08T07:15:11.240Z,21.50
2019-06-08T07:20:17.994Z,21.50
2019-06-08T07:25:23.846Z,21.60
2019-06-08T07:30:30.157Z,21.70
2019-06-08T07:35:36.366Z,21.70
2019-06-08T07:40:43.149Z,21.80
2019-06-08T07:45:51.855Z,21.80
2019-06-08T07:50:58.331Z,21.90
2019-06-08T07:56:05.317Z,21.90
2019-06-08T08:01:11.423Z,22.00
2019-06-08T08:06:18.077Z,22.00
2019-06-08T08:11:25.118Z,22.10
2019-06-08T08:16:31.639Z,22.10
2019-06-08T08:21:40.787Z,22.20
2019-06-08T08:26:49.420Z,22.20
2019-06-08T08:31:55.530Z,22.20
2019-06-08T08:37:05.773Z,22.20
2019-06-08T08:42:10.596Z,22.30
2019-06-08T08:47:18.743Z,22.40
2019-06-08T08:52:34.473Z,22.40
2019-06-08T08:57:33.216Z,22.40
2019-06-08T09:02:39.859Z,22.50
2019-06-08T09:07:48.292Z,22.50
2019-06-08T09:12:53.844Z,22.50
2019-06-08T09:18:03.679Z,22.60
2019-06-08T09:23:16.030Z,22.60
2019-06-08T09:28:18.625Z,22.70
2019-06-08T09:33:25.826Z,22.70
2019-06-08T09:38:31.861Z,22.70
2019-06-08T09:43:38.854Z,22.80
2019-06-08T09:48:48.520Z,22.80
2019-06-08T09:53:54.722Z,22.80
2019-06-08T09:59:04.091Z,22.90
2019-06-08T10:04:09.527Z,22.90
2019-06-08T10:09:18.465Z,22.90
2019-06-08T10:14:24.371Z,23.00
2019-06-08T10:19:31.329Z,23.00
2019-06-08T10:24:41.134Z,23.10
2019-06-08T10:29:48.196Z,23.10
2019-06-08T10:34:55.644Z,23.10
2019-06-08T10:40:04.326Z,23.20
2019-06-08T10:45:14.787Z,23.20
2019-06-08T10:50:20.917Z,23.20
2019-06-08T10:55:28.076Z,23.30
2019-06-08T11:00:34.186Z,23.30
2019-06-08T11:05:40.278Z,23.30
2019-06-08T11:10:47.509Z,23.20
2019-06-08T11:15:54.608Z,23.20
2019-06-08T11:21:03.564Z,23.20
2019-06-08T11:26:19.103Z,23.20
2019-06-08T11:31:19.497Z,23.10
2019-06-08T11:36:28.055Z,23.10
2019-06-08T11:41:33.737Z,23.00
2019-06-08T11:46:42.640Z,23.00
2019-06-08T11:51:49.168Z,23.00
2019-06-08T11:56:57.418Z,23.00
2019-06-08T12:02:03.532Z,23.00
2019-06-08T12:07:12.238Z,23.00
2019-06-08T12:12:21.031Z,23.00
2019-06-08T12:17:27.591Z,23.10
2019-06-08T12:22:33.892Z,23.10
2019-06-08T12:27:40.493Z,23.10
2019-06-08T12:32:47.914Z,23.10
2019-06-08T12:37:54.556Z,23.10
2019-06-08T12:43:00.416Z,23.10
2019-06-08T12:48:08.850Z,23.10
2019-06-08T12:53:17.658Z,23.10
2019-06-08T12:58:22.796Z,23.20
2019-06-08T13:03:29.905Z,23.20
2019-06-08T13:08:37.402Z,23.30
2019-06-08T13:13:44.266Z,23.30
2019-06-08T13:18:50.692Z,23.30
2019-06-08T13:23:58.195Z,23.40
2019-06-08T13:29:04.387Z,23.40
2019-06-08T13:34:13.028Z,23.40
2019-06-08T13:39:21.237Z,23.40
2019-06-08T13:44:27.798Z,23.50
2019-06-08T13:49:33.996Z,23.50
2019-06-08T13:54:39.856Z,23.50
2019-06-08T13:59:48.614Z,23.50
2019-06-08T14:04:55.026Z,23.50
2019-06-08T14:10:01.026Z,23.60
2019-06-08T14:15:08.590Z,23.50
2019-06-08T14:20:23.260Z,23.60
2019-06-08T14:25:34.187Z,23.60
2019-06-08T14:30:37.706Z,23.60
2019-06-08T14:35:44.145Z,23.60
2019-06-08T14:40:50.916Z,23.60
2019-06-08T14:45:57.984Z,23.70
2019-06-08T14:51:04.486Z,23.70
2019-06-08T14:56:10.887Z,23.70
2019-06-08T15:01:19.443Z,23.70
2019-06-08T15:06:27.569Z,23.70
2019-06-08T15:11:35.172Z,23.70
2019-06-08T15:16:41.849Z,23.70
2019-06-08T15:21:48.513Z,23.70
2019-06-08T15:26:54.815Z,23.70
2019-06-08T15:32:00.888Z,23.80
2019-06-08T15:37:09.264Z,23.80
2019-06-08T15:42:17.882Z,23.80
2019-06-08T15:47:24.092Z,23.80
2019-06-08T15:52:32.596Z,23.90
2019-06-08T15:57:41.086Z,24.00
2019-06-08T16:02:46.845Z,24.00
2019-06-08T16:07:54.146Z,24.10
2019-06-08T16:12:59.987Z,24.20
2019-06-08T16:18:07.178Z,24.20
2019-06-08T16:23:13.975Z,24.20
2019-06-08T16:28:20.025Z,24.30
2019-06-08T16:33:27.371Z,24.30
2019-06-08T16:38:34.254Z,24.40
2019-06-08T16:43:41.276Z,24.40
2019-06-08T16:48:48.170Z,24.40
2019-06-08T16:53:54.260Z,24.50
2019-06-08T16:59:00.352Z,24.50
2019-06-08T17:04:07.426Z,24.50
2019-06-08T17:09:14.236Z,24.50
2019-06-08T17:14:24.675Z,24.50
2019-06-08T17:19:29.928Z,24.50
2019-06-08T17:24:36.784Z,24.60
2019-06-08T17:29:42.485Z,24.60
2019-06-08T17:34:48.608Z,24.60
2019-06-08T17:39:54.375Z,24.70
2019-06-08T17:45:01.216Z,24.70
2019-06-08T17:50:08.339Z,24.70
2019-06-08T17:55:14.727Z,24.70
2019-06-08T18:00:22.037Z,24.70
2019-06-08T18:05:28.329Z,24.70
2019-06-08T18:10:36.474Z,24.80
2019-06-08T18:15:43.710Z,24.80
2019-06-08T18:20:52.260Z,24.80
2019-06-08T18:25:58.614Z,24.80
2019-06-08T18:31:07.377Z,24.80
2019-06-08T18:36:13.687Z,24.80
2019-06-08T18:41:19.755Z,24.80
2019-06-08T18:46:27.207Z,24.80
2019-06-08T18:51:33.265Z,24.80
2019-06-08T18:56:41.870Z,24.80
2019-06-08T19:01:48.684Z,24.80
2019-06-08T19:06:55.876Z,24.80
2019-06-08T19:12:02.237Z,24.80
2019-06-08T19:17:08.446Z,24.90
2019-06-08T19:22:15.159Z,24.90
2019-06-08T19:27:21.806Z,24.90
2019-06-08T19:32:28.715Z,24.90
2019-06-08T19:37:34.994Z,24.90
2019-06-08T19:42:51.069Z,24.90
2019-06-08T19:47:49.296Z,24.90
2019-06-08T19:52:57.829Z,24.90
2019-06-08T19:58:03.596Z,24.90
2019-06-08T20:03:09.721Z,24.90
2019-06-08T20:08:17.527Z,24.90
2019-06-08T20:13:23.495Z,24.90
2019-06-08T20:18:29.935Z,24.90
2019-06-08T20:23:38.188Z,24.90
2019-06-08T20:28:47.008Z,24.90
2019-06-08T20:33:53.830Z,24.90
2019-06-08T20:39:00.556Z,24.90
2019-06-08T20:44:08.472Z,24.90
2019-06-08T20:49:17.123Z,24.90
2019-06-08T20:54:23.685Z,24.90
2019-06-08T20:59:34.044Z,25.00
2019-06-08T21:04:38.500Z,24.90
2019-06-08T21:09:46.243Z,24.90
2019-06-08T21:14:54.229Z,25.00
2019-06-08T21:20:01.787Z,24.90
2019-06-08T21:25:10.015Z,24.90
2019-06-08T21:30:23.321Z,25.00
2019-06-08T21:35:25.026Z,24.90
2019-06-08T21:40:30.745Z,25.00
2019-06-08T21:45:38.134Z,25.00
2019-06-08T21:50:45.157Z,25.00
2019-06-08T21:55:52.085Z,25.00
2019-06-08T22:00:59.724Z,25.00
2019-06-08T22:06:07.841Z,25.00
2019-06-08T22:11:13.837Z,25.00
2019-06-08T22:16:20.103Z,25.00
2019-06-08T22:21:27.949Z,25.00
2019-06-08T22:26:35.585Z,25.00
2019-06-08T22:31:41.615Z,25.00
2019-06-08T22:36:47.928Z,25.00
2019-06-08T22:41:56.087Z,25.00
2019-06-08T22:47:03.663Z,25.00
2019-06-08T22:52:10.835Z,25.00
2019-06-08T22:57:22.302Z,24.90
2019-06-08T23:02:28.866Z,25.00
2019-06-08T23:07:37.231Z,25.00
2019-06-08T23:12:43.499Z,25.00
2019-06-08T23:17:49.565Z,25.00
2019-06-08T23:22:55.680Z,25.00
2019-06-08T23:28:05.433Z,25.00
2019-06-08T23:33:12.514Z,25.00
2019-06-08T23:38:18.740Z,25.00
2019-06-08T23:43:24.438Z,25.00
2019-06-08T23:48:31.138Z,25.00
2019-06-08T23:53:38.192Z,25.00
2019-06-08T23:58:44.285Z,25.00
